Time,TemperatureF,DewpointF,PressureIn,WindDirection,WindDirectionDegrees,WindSpeedMPH,WindSpeedGustMPH,Humidity,HourlyPrecipIn,Conditions,Clouds,dailyrainin,SolarRadiationWatts/m^2,SoftwareType,DateUTC
2013-02-17 00:00:00,31.0,27.9,29.82,NW,326,1.0,6.0,88,0.00,,,0.35,0.00,VWS V14.01,2013-02-17 05:00:00,
2013-02-17 00:05:00,31.0,27.6,29.82,North,358,0.0,0.0,87,0.00,,,0.00,0.00,VWS V14.01,2013-02-17 05:05:00,
2013-02-17 00:10:00,31.0,27.6,29.82,NW,307,4.0,6.0,87,0.00,,,0.00,0.00,VWS V14.01,2013-02-17 05:10:00,
2013-02-17 00:15:00,31.0,27.6,29.82,WNW,302,2.0,6.0,87,0.00,,,0.00,0.00,VWS V14.01,2013-02-17 05:15:00,
2013-02-17 00:20:00,31.2,27.8,29.82,NW,324,2.0,6.0,87,0.00,,,0.00,0.00,VWS V14.01,2013-02-17 05:20:00,
2013-02-17 00:25:00,31.2,27.8,29.82,WNW,297,7.0,7.0,87,0.00,,,0.00,0.00,VWS V14.01,2013-02-17 05:25:00,
2013-02-17 00:30:00,31.0,27.6,29.82,NNW,345,8.0,8.0,87,0.00,,,0.00,0.00,VWS V14.01,2013-02-17 05:30:00,
2013-02-17 00:35:00,31.0,27.0,29.82,WNW,289,4.0,14.0,85,0.00,,,0.00,0.00,VWS V14.01,2013-02-17 05:35:00,
2013-02-17 00:40:00,30.9,26.9,29.82,NW,319,6.0,16.0,85,0.00,,,0.00,0.00,VWS V14.01,2013-02-17 05:40:00,
2013-02-17 00:45:00,30.7,26.5,29.83,NNW,338,4.0,5.0,84,0.00,,,0.00,0.00,VWS V14.01,2013-02-17 05:45:00,
2013-02-17 00:50:00,30.7,26.5,29.83,NW,316,6.0,7.0,84,0.00,,,0.00,0.00,VWS V14.01,2013-02-17 05:50:00,
2013-02-17 00:55:00,30.7,25.9,29.83,WNW,283,0.0,3.0,82,0.00,,,0.00,0.00,VWS V14.01,2013-02-17 05:55:00,
2013-02-17 01:00:00,30.7,25.6,29.83,NNW,339,2.0,3.0,81,0.00,,,0.00,0.00,VWS V14.01,2013-02-17 06:00:00,
2013-02-17 01:05:00,30.7,25.6,29.83,NNW,347,2.0,4.0,81,0.00,,,0.00,0.00,VWS V14.01,2013-02-17 06:05:00,
2013-02-17 01:10:00,30.9,25.8,29.83,NW,323,2.0,4.0,81,0.00,,,0.00,0.00,VWS V14.01,2013-02-17 06:10:00,
2013-02-17 01:15:00,30.9,25.8,29.84,WNW,297,0.0,0.0,81,0.00,,,0.00,0.00,VWS V14.01,2013-02-17 06:15:00,
2013-02-17 01:20:00,30.9,25.8,29.84,WNW,297,0.0,3.0,81,0.00,,,0.00,0.00,VWS V14.01,2013-02-17 06:20:00,
2013-02-17 01:25:00,30.9,26.1,29.84,WNW,297,0.0,4.0,82,0.00,,,0.00,0.00,VWS V14.01,2013-02-17 06:25:00,
2013-02-17 01:30:00,30.9,26.1,29.84,WNW,300,1.0,4.0,82,0.00,,,0.00,0.00,VWS V14.01,2013-02-17 06:30:00,
2013-02-17 01:35:00,30.9,26.1,29.84,NW,304,3.0,3.0,82,0.00,,,0.00,0.00,VWS V14.01,2013-02-17 06:35:00,
2013-02-17 01:40:00,30.9,25.8,29.84,WNW,288,1.0,1.0,81,0.00,,,0.00,0.00,VWS V14.01,2013-02-17 06:40:00,
2013-02-17 01:45:00,30.7,25.6,29.84,West,265,1.0,4.0,81,0.00,,,0.00,0.00,VWS V14.01,2013-02-17 06:45:00,
2013-02-17 01:50:00,30.7,25.3,29.84,WNW,288,5.0,6.0,80,0.00,,,0.00,0.00,VWS V14.01,2013-02-17 06:50:00,
2013-02-17 01:55:00,30.6,25.2,29.84,WNW,292,0.0,0.0,80,0.00,,,0.00,0.00,VWS V14.01,2013-02-17 06:55:00,
2013-02-17 02:00:00,30.4,24.7,29.84,WNW,290,0.0,0.0,79,0.00,,,0.00,0.00,VWS V14.01,2013-02-17 07:00:00,
2013-02-17 02:05:00,30.3,24.3,29.84,NW,318,0.0,4.0,78,0.00,,,0.00,0.00,VWS V14.01,2013-02-17 07:05:00,
2013-02-17 02:10:00,30.1,23.8,29.84,NW,316,6.0,10.0,77,0.00,,,0.00,0.00,VWS V14.01,2013-02-17 07:10:00,
2013-02-17 02:15:00,30.0,23.0,29.85,NW,319,9.0,12.0,75,0.00,,,0.00,0.00,VWS V14.01,2013-02-17 07:15:00,
2013-02-17 02:20:00,30.0,22.7,29.85,WNW,285,2.0,4.0,74,0.00,,,0.00,0.00,VWS V14.01,2013-02-17 07:20:00,
2013-02-17 02:25:00,30.0,22.7,29.85,NNW,327,3.0,4.0,74,0.00,,,0.00,0.00,VWS V14.01,2013-02-17 07:25:00,
2013-02-17 02:30:00,29.8,22.2,29.85,WNW,293,4.0,4.0,73,0.00,,,0.00,0.00,VWS V14.01,2013-02-17 07:30:00,
2013-02-17 02:35:00,29.7,21.8,29.85,West,279,2.0,5.0,72,0.00,,,0.00,0.00,VWS V14.01,2013-02-17 07:35:00,
2013-02-17 02:40:00,29.5,21.6,29.85,NW,304,4.0,7.0,72,0.00,,,0.00,0.00,VWS V14.01,2013-02-17 07:40:00,
2013-02-17 02:45:00,29.5,21.6,29.85,NNW,342,1.0,5.0,72,0.00,,,0.00,0.00,VWS V14.01,2013-02-17 07:45:00,
2013-02-17 02:50:00,29.4,21.2,29.85,WNW,300,3.0,4.0,71,0.00,,,0.00,0.00,VWS V14.01,2013-02-17 07:50:00,
2013-02-17 02:55:00,29.3,21.1,29.85,NW,326,0.0,4.0,71,0.00,,,0.00,0.00,VWS V14.01,2013-02-17 07:55:00,
2013-02-17 03:00:00,29.1,20.9,29.85,NW,305,4.0,7.0,71,0.00,,,0.00,0.00,VWS V14.01,2013-02-17 08:00:00,
2013-02-17 03:05:00,29.0,20.8,29.85,West,276,1.0,5.0,71,0.00,,,0.00,0.00,VWS V14.01,2013-02-17 08:05:00,
2013-02-17 03:10:00,29.0,20.8,29.85,NW,313,2.0,5.0,71,0.00,,,0.00,0.00,VWS V14.01,2013-02-17 08:10:00,
2013-02-17 03:15:00,28.8,20.3,29.85,WNW,300,2.0,4.0,70,0.00,,,0.00,0.00,VWS V14.01,2013-02-17 08:15:00,
2013-02-17 03:20:00,28.7,20.2,29.85,WNW,284,4.0,6.0,70,0.00,,,0.00,0.00,VWS V14.01,2013-02-17 08:20:00,
2013-02-17 03:25:00,28.5,20.0,29.85,NW,307,0.0,0.0,70,0.00,,,0.00,0.00,VWS V14.01,2013-02-17 08:25:00,
2013-02-17 03:30:00,28.5,20.0,29.85,WNW,299,3.0,4.0,70,0.00,,,0.00,0.00,VWS V14.01,2013-02-17 08:30:00,
2013-02-17 03:35:00,28.4,19.9,29.85,WNW,297,0.0,2.0,70,0.00,,,0.00,0.00,VWS V14.01,2013-02-17 08:35:00,
2013-02-17 03:40:00,28.4,19.9,29.85,NW,323,0.0,1.0,70,0.00,,,0.00,0.00,VWS V14.01,2013-02-17 08:40:00,
2013-02-17 03:45:00,28.2,19.7,29.86,WNW,290,0.0,2.0,70,0.00,,,0.00,0.00,VWS V14.01,2013-02-17 08:45:00,
2013-02-17 03:50:00,28.1,19.6,29.86,WNW,288,4.0,5.0,70,0.00,,,0.00,0.00,VWS V14.01,2013-02-17 08:50:00,
2013-02-17 03:55:00,28.1,19.6,29.86,WNW,288,0.0,2.0,70,0.00,,,0.00,0.00,VWS V14.01,2013-02-17 08:55:00,
2013-02-17 04:00:00,27.9,19.4,29.86,WNW,295,0.0,0.0,70,0.00,,,0.00,0.00,VWS V14.01,2013-02-17 09:00:00,
2013-02-17 04:05:00,27.8,19.6,29.86,NW,310,0.0,4.0,71,0.00,,,0.00,0.00,VWS V14.01,2013-02-17 09:05:00,
2013-02-17 04:10:00,27.8,19.3,29.86,NW,315,0.0,2.0,70,0.00,,,0.00,0.00,VWS V14.01,2013-02-17 09:10:00,
2013-02-17 04:15:00,27.6,19.1,29.87,NW,319,0.0,3.0,70,0.00,,,0.00,0.00,VWS V14.01,2013-02-17 09:15:00,
2013-02-17 04:20:00,27.6,19.1,29.87,NW,319,0.0,0.0,70,0.00,,,0.00,0.00,VWS V14.01,2013-02-17 09:20:00,
2013-02-17 04:25:00,27.5,19.4,29.87,WNW,290,0.0,0.0,71,0.00,,,0.00,0.00,VWS V14.01,2013-02-17 09:25:00,
2013-02-17 04:30:00,27.5,19.4,29.87,WNW,302,0.0,0.0,71,0.00,,,0.00,0.00,VWS V14.01,2013-02-17 09:30:00,
2013-02-17 04:35:00,27.3,19.1,29.87,WNW,302,0.0,0.0,71,0.00,,,0.00,0.00,VWS V14.01,2013-02-17 09:35:00,
2013-02-17 04:40:00,27.2,19.1,29.87,WNW,302,0.0,0.0,71,0.00,,,0.00,0.00,VWS V14.01,2013-02-17 09:40:00,
2013-02-17 04:45:00,27.0,18.9,29.88,WNW,299,0.0,0.0,71,0.00,,,0.00,0.00,VWS V14.01,2013-02-17 09:45:00,
2013-02-17 04:50:00,27.0,18.9,29.88,WNW,299,0.0,0.0,71,0.00,,,0.00,0.00,VWS V14.01,2013-02-17 09:50:00,
2013-02-17 04:55:00,27.0,18.9,29.88,WSW,252,4.0,4.0,71,0.00,,,0.00,0.00,VWS V14.01,2013-02-17 09:55:00,
2013-02-17 05:00:00,26.9,18.8,29.89,NW,311,1.0,4.0,71,0.00,,,0.00,0.00,VWS V14.01,2013-02-17 10:00:00,
2013-02-17 05:05:00,26.9,18.8,29.89,NNW,333,0.0,0.0,71,0.00,,,0.00,0.00,VWS V14.01,2013-02-17 10:05:00,
2013-02-17 05:10:00,26.7,18.6,29.89,WNW,303,0.0,4.0,71,0.00,,,0.00,0.00,VWS V14.01,2013-02-17 10:10:00,
2013-02-17 05:15:00,26.7,18.6,29.90,WNW,295,0.0,5.0,71,0.00,,,0.00,0.00,VWS V14.01,2013-02-17 10:15:00,
2013-02-17 05:20:00,26.7,18.6,29.90,NW,304,4.0,6.0,71,0.00,,,0.00,0.00,VWS V14.01,2013-02-17 10:20:00,
2013-02-17 05:25:00,26.9,18.4,29.90,NW,319,0.0,2.0,70,0.00,,,0.00,0.00,VWS V14.01,2013-02-17 10:25:00,
2013-02-17 05:30:00,26.9,18.4,29.91,West,277,5.0,10.0,70,0.00,,,0.00,0.00,VWS V14.01,2013-02-17 10:30:00,
2013-02-17 05:35:00,27.0,17.9,29.91,NW,318,6.0,6.0,68,0.00,,,0.00,0.00,VWS V14.01,2013-02-17 10:35:00,
2013-02-17 05:40:00,27.2,17.7,29.91,WNW,297,3.0,5.0,67,0.00,,,0.00,0.00,VWS V14.01,2013-02-17 10:40:00,
2013-02-17 05:45:00,27.2,17.4,29.91,West,272,7.0,9.0,66,0.00,,,0.00,0.00,VWS V14.01,2013-02-17 10:45:00,
2013-02-17 05:50:00,27.2,17.4,29.91,WNW,302,2.0,4.0,66,0.00,,,0.00,0.00,VWS V14.01,2013-02-17 10:50:00,
2013-02-17 05:55:00,27.2,16.6,29.91,NW,320,7.0,7.0,64,0.00,,,0.00,0.00,VWS V14.01,2013-02-17 10:55:00,
2013-02-17 06:00:00,27.2,16.6,29.92,WNW,290,2.0,5.0,64,0.00,,,0.00,0.00,VWS V14.01,2013-02-17 11:00:00,
2013-02-17 06:05:00,27.2,16.6,29.92,North,354,4.0,6.0,64,0.00,,,0.00,0.00,VWS V14.01,2013-02-17 11:05:00,
2013-02-17 06:10:00,27.2,16.6,29.92,NW,316,5.0,9.0,64,0.00,,,0.00,0.00,VWS V14.01,2013-02-17 11:10:00,
2013-02-17 06:15:00,27.0,16.1,29.93,WNW,285,5.0,7.0,63,0.00,,,0.00,0.00,VWS V14.01,2013-02-17 11:15:00,
2013-02-17 06:20:00,27.0,15.7,29.93,West,267,4.0,9.0,62,0.00,,,0.00,0.00,VWS V14.01,2013-02-17 11:20:00,
2013-02-17 06:25:00,27.0,15.4,29.93,West,269,2.0,6.0,61,0.00,,,0.00,0.00,VWS V14.01,2013-02-17 11:25:00,
2013-02-17 06:30:00,26.9,15.3,29.93,NW,308,4.0,5.0,61,0.00,,,0.00,0.00,VWS V14.01,2013-02-17 11:30:00,
2013-02-17 06:35:00,26.7,14.7,29.93,WNW,287,5.0,6.0,60,0.00,,,0.00,0.00,VWS V14.01,2013-02-17 11:35:00,
2013-02-17 06:40:00,26.7,14.7,29.93,NW,308,2.0,7.0,60,0.00,,,0.00,0.00,VWS V14.01,2013-02-17 11:40:00,
2013-02-17 06:45:00,26.6,14.2,29.93,NW,311,5.0,10.0,59,0.00,,,0.00,0.00,VWS V14.01,2013-02-17 11:45:00,
2013-02-17 06:50:00,26.7,13.5,29.93,NNW,341,10.0,10.0,57,0.00,,,0.00,0.00,VWS V14.01,2013-02-17 11:50:00,
2013-02-17 06:55:00,26.7,13.1,29.93,WNW,284,4.0,6.0,56,0.00,,,0.00,0.00,VWS V14.01,2013-02-17 11:55:00,
2013-02-17 07:00:00,26.7,12.7,29.94,NW,309,7.0,12.0,55,0.00,,,0.00,0.00,VWS V14.01,2013-02-17 12:00:00,
2013-02-17 07:05:00,26.7,12.7,29.94,WSW,253,4.0,13.0,55,0.00,,,0.00,5.00,VWS V14.01,2013-02-17 12:05:00,
2013-02-17 07:10:00,26.7,12.7,29.94,WNW,297,10.0,10.0,55,0.00,,,0.00,7.00,VWS V14.01,2013-02-17 12:10:00,
2013-02-17 07:15:00,26.7,12.3,29.95,NNW,337,5.0,8.0,54,0.00,,,0.00,9.00,VWS V14.01,2013-02-17 12:15:00,
2013-02-17 07:20:00,26.7,12.3,29.95,North,0,0.0,2.0,54,0.00,,,0.00,11.00,VWS V14.01,2013-02-17 12:20:00,
2013-02-17 07:25:00,26.7,12.3,29.95,West,277,5.0,7.0,54,0.00,,,0.00,12.00,VWS V14.01,2013-02-17 12:25:00,
2013-02-17 07:30:00,26.7,11.9,29.96,NNW,328,5.0,7.0,53,0.00,,,0.00,14.00,VWS V14.01,2013-02-17 12:30:00,
2013-02-17 07:35:00,26.9,12.1,29.96,NW,308,2.0,5.0,53,0.00,,,0.00,18.00,VWS V14.01,2013-02-17 12:35:00,
2013-02-17 07:40:00,26.9,12.1,29.96,West,278,4.0,10.0,53,0.00,,,0.00,19.00,VWS V14.01,2013-02-17 12:40:00,
2013-02-17 07:45:00,26.9,12.1,29.96,WNW,285,4.0,7.0,53,0.00,,,0.00,21.00,VWS V14.01,2013-02-17 12:45:00,
2013-02-17 07:50:00,27.0,12.6,29.96,WNW,288,2.0,3.0,54,0.00,,,0.00,23.00,VWS V14.01,2013-02-17 12:50:00,
2013-02-17 07:55:00,27.0,12.6,29.96,WNW,293,4.0,12.0,54,0.00,,,0.00,25.00,VWS V14.01,2013-02-17 12:55:00,
2013-02-17 08:00:00,27.2,13.2,29.97,WNW,283,2.0,6.0,55,0.00,,,0.00,26.00,VWS V14.01,2013-02-17 13:00:00,
2013-02-17 08:05:00,27.3,13.3,29.97,WNW,285,7.0,9.0,55,0.00,,,0.00,28.00,VWS V14.01,2013-02-17 13:05:00,
2013-02-17 08:10:00,27.5,13.5,29.97,NW,320,8.0,8.0,55,0.00,,,0.00,30.00,VWS V14.01,2013-02-17 13:10:00,
2013-02-17 08:15:00,27.6,14.0,29.98,West,266,4.0,9.0,56,0.00,,,0.00,32.00,VWS V14.01,2013-02-17 13:15:00,
2013-02-17 08:20:00,27.8,14.6,29.98,West,269,4.0,5.0,57,0.00,,,0.00,33.00,VWS V14.01,2013-02-17 13:20:00,
2013-02-17 08:25:00,27.9,14.6,29.98,NW,313,3.0,5.0,57,0.00,,,0.00,33.00,VWS V14.01,2013-02-17 13:25:00,
2013-02-17 08:30:00,28.1,15.2,29.98,NW,308,0.0,7.0,58,0.00,,,0.00,35.00,VWS V14.01,2013-02-17 13:30:00,
2013-02-17 08:35:00,28.2,14.5,29.98,WNW,285,7.0,11.0,56,0.00,,,0.00,37.00,VWS V14.01,2013-02-17 13:35:00,
2013-02-17 08:40:00,28.4,14.3,29.98,WSW,251,8.0,16.0,55,0.00,,,0.00,37.00,VWS V14.01,2013-02-17 13:40:00,
2013-02-17 08:45:00,28.5,13.6,29.99,WNW,300,7.0,12.0,53,0.00,,,0.00,39.00,VWS V14.01,2013-02-17 13:45:00,
2013-02-17 08:50:00,28.8,13.8,29.99,North,0,2.0,6.0,53,0.00,,,0.00,42.00,VWS V14.01,2013-02-17 13:50:00,
2013-02-17 08:55:00,29.0,13.6,29.99,West,276,4.0,16.0,52,0.00,,,0.00,42.00,VWS V14.01,2013-02-17 13:55:00,
2013-02-17 09:00:00,29.1,13.2,29.99,WNW,293,2.0,11.0,51,0.00,,,0.00,345.00,VWS V14.01,2013-02-17 14:00:00,
2013-02-17 09:05:00,29.4,12.6,29.99,NNW,339,10.0,10.0,49,0.00,,,0.00,318.00,VWS V14.01,2013-02-17 14:05:00,
2013-02-17 09:10:00,29.8,13.0,29.99,NW,316,12.0,17.0,49,0.00,,,0.00,406.00,VWS V14.01,2013-02-17 14:10:00,
2013-02-17 09:15:00,30.1,13.3,30.00,NNW,340,12.0,12.0,49,0.00,,,0.00,448.00,VWS V14.01,2013-02-17 14:15:00,
2013-02-17 09:20:00,30.4,13.1,30.00,NNW,333,3.0,7.0,48,0.00,,,0.00,443.00,VWS V14.01,2013-02-17 14:20:00,
2013-02-17 09:25:00,30.7,13.4,30.00,NNW,330,6.0,17.0,48,0.00,,,0.00,490.00,VWS V14.01,2013-02-17 14:25:00,
2013-02-17 09:30:00,30.6,11.8,30.00,WNW,286,1.0,15.0,45,0.00,,,0.00,88.00,VWS V14.01,2013-02-17 14:30:00,
2013-02-17 09:35:00,30.4,12.6,30.00,NNE,22,5.0,10.0,47,0.00,,,0.00,406.00,VWS V14.01,2013-02-17 14:35:00,
2013-02-17 09:40:00,30.6,12.8,30.00,North,358,1.0,9.0,47,0.00,,,0.00,573.00,VWS V14.01,2013-02-17 14:40:00,
2013-02-17 09:45:00,30.7,12.9,30.01,WNW,300,5.0,9.0,47,0.00,,,0.00,128.00,VWS V14.01,2013-02-17 14:45:00,
2013-02-17 09:50:00,30.6,13.3,30.01,WNW,302,6.0,15.0,48,0.00,,,0.00,137.00,VWS V14.01,2013-02-17 14:50:00,
2013-02-17 09:55:00,30.9,12.1,30.01,NW,326,4.0,12.0,45,0.00,,,0.00,624.00,VWS V14.01,2013-02-17 14:55:00,
2013-02-17 10:00:00,30.9,12.6,30.01,NNW,328,7.0,11.0,46,0.00,,,0.00,274.00,VWS V14.01,2013-02-17 15:00:00,
2013-02-17 10:05:00,30.7,11.9,30.01,WNW,296,18.0,18.0,45,0.00,,,0.00,185.00,VWS V14.01,2013-02-17 15:05:00,
2013-02-17 10:10:00,29.8,9.5,30.01,WNW,303,7.0,18.0,42,0.00,,,0.00,237.00,VWS V14.01,2013-02-17 15:10:00,
2013-02-17 10:15:00,29.7,10.0,30.02,NNW,345,3.0,6.0,43,0.00,,,0.00,610.00,VWS V14.01,2013-02-17 15:15:00,
2013-02-17 10:20:00,30.4,11.1,30.02,West,274,18.0,26.0,44,0.00,,,0.00,483.00,VWS V14.01,2013-02-17 15:20:00,
2013-02-17 10:25:00,30.9,8.9,30.02,WNW,285,12.0,15.0,39,0.00,,,0.00,253.00,VWS V14.01,2013-02-17 15:25:00,
2013-02-17 10:30:00,30.4,9.5,30.02,NW,304,15.0,18.0,41,0.00,,,0.00,221.00,VWS V14.01,2013-02-17 15:30:00,
2013-02-17 10:35:00,30.4,10.6,30.02,NNW,347,5.0,5.0,43,0.00,,,0.00,691.00,VWS V14.01,2013-02-17 15:35:00,
2013-02-17 10:40:00,30.9,9.4,30.02,West,280,12.0,18.0,40,0.00,,,0.00,642.00,VWS V14.01,2013-02-17 15:40:00,
2013-02-17 10:45:00,31.2,9.1,30.03,NW,307,20.0,20.0,39,0.00,,,0.00,650.00,VWS V14.01,2013-02-17 15:45:00,
2013-02-17 10:50:00,31.2,8.0,30.03,North,1,8.0,20.0,37,0.00,,,0.00,656.00,VWS V14.01,2013-02-17 15:50:00,
2013-02-17 10:55:00,31.3,7.5,30.03,North,0,7.0,17.0,36,0.00,,,0.00,680.00,VWS V14.01,2013-02-17 15:55:00,
2013-02-17 11:00:00,31.6,7.1,30.03,North,356,17.0,25.0,35,0.00,,,0.00,689.00,VWS V14.01,2013-02-17 16:00:00,
2013-02-17 11:05:00,31.6,7.1,30.03,NNW,331,14.0,15.0,35,0.00,,,0.00,673.00,VWS V14.01,2013-02-17 16:05:00,
2013-02-17 11:10:00,31.9,9.2,30.03,NW,326,5.0,11.0,38,0.00,,,0.00,682.00,VWS V14.01,2013-02-17 16:10:00,
2013-02-17 11:15:00,32.4,9.6,30.03,NW,321,11.0,13.0,38,0.01,,,0.01,696.00,VWS V14.01,2013-02-17 16:15:00,
2013-02-17 11:20:00,32.8,9.4,30.03,NNW,335,6.0,14.0,37,0.01,,,0.01,731.00,VWS V14.01,2013-02-17 16:20:00,
2013-02-17 11:25:00,33.1,8.4,30.03,WNW,290,4.0,14.0,35,0.01,,,0.01,708.00,VWS V14.01,2013-02-17 16:25:00,
2013-02-17 11:30:00,33.4,9.9,30.03,WNW,292,10.0,12.0,37,0.01,,,0.01,742.00,VWS V14.01,2013-02-17 16:30:00,
2013-02-17 11:35:00,33.2,7.2,30.03,West,278,18.0,19.0,33,0.01,,,0.01,726.00,VWS V14.01,2013-02-17 16:35:00,
2013-02-17 11:40:00,33.1,8.4,30.03,NNW,344,9.0,14.0,35,0.01,,,0.01,719.00,VWS V14.01,2013-02-17 16:40:00,
2013-02-17 11:45:00,33.4,9.9,30.03,WNW,294,6.0,10.0,37,0.01,,,0.01,731.00,VWS V14.01,2013-02-17 16:45:00,
2013-02-17 11:50:00,33.5,8.8,30.03,NW,306,3.0,7.0,35,0.01,,,0.01,738.00,VWS V14.01,2013-02-17 16:50:00,
2013-02-17 11:55:00,33.7,7.7,30.03,WNW,285,6.0,14.0,33,0.01,,,0.01,756.00,VWS V14.01,2013-02-17 16:55:00,
2013-02-17 12:00:00,34.0,8.6,30.03,West,262,17.0,17.0,34,0.01,,,0.01,754.00,VWS V14.01,2013-02-17 17:00:00,
2013-02-17 12:05:00,34.0,7.3,30.03,West,270,9.0,12.0,32,0.01,,,0.01,752.00,VWS V14.01,2013-02-17 17:05:00,
2013-02-17 12:10:00,34.3,8.2,30.03,North,3,7.0,13.0,33,0.01,,,0.01,766.00,VWS V14.01,2013-02-17 17:10:00,
2013-02-17 12:15:00,34.1,7.3,30.03,North,349,17.0,18.0,32,0.00,,,0.01,788.00,VWS V14.01,2013-02-17 17:15:00,
2013-02-17 12:20:00,34.3,9.5,30.03,NNW,347,4.0,7.0,35,0.00,,,0.01,826.00,VWS V14.01,2013-02-17 17:20:00,
2013-02-17 12:25:00,34.7,7.2,30.03,North,0,13.0,14.0,31,0.00,,,0.01,775.00,VWS V14.01,2013-02-17 17:25:00,
2013-02-17 12:30:00,34.4,6.2,30.04,WNW,301,13.0,18.0,30,0.00,,,0.01,791.00,VWS V14.01,2013-02-17 17:30:00,
2013-02-17 12:35:00,34.4,6.9,30.04,WNW,289,13.0,18.0,31,0.00,,,0.01,791.00,VWS V14.01,2013-02-17 17:35:00,
2013-02-17 12:40:00,34.9,5.9,30.04,West,278,11.0,11.0,29,0.00,,,0.01,756.00,VWS V14.01,2013-02-17 17:40:00,
2013-02-17 12:45:00,35.0,5.2,30.02,NNW,338,18.0,18.0,28,0.00,,,0.01,751.00,VWS V14.01,2013-02-17 17:45:00,
2013-02-17 12:50:00,35.2,6.9,30.02,North,358,9.0,15.0,30,0.00,,,0.01,773.00,VWS V14.01,2013-02-17 17:50:00,
2013-02-17 12:55:00,35.6,6.5,30.02,WNW,290,15.0,15.0,29,0.00,,,0.01,796.00,VWS V14.01,2013-02-17 17:55:00,
2013-02-17 13:00:00,35.8,6.7,30.02,NW,326,12.0,13.0,29,0.00,,,0.01,749.00,VWS V14.01,2013-02-17 18:00:00,
2013-02-17 13:05:00,35.5,5.6,30.02,NNW,327,14.0,20.0,28,0.00,,,0.01,742.00,VWS V14.01,2013-02-17 18:05:00,
2013-02-17 13:10:00,35.2,4.6,30.02,NW,326,5.0,10.0,27,0.00,,,0.01,758.00,VWS V14.01,2013-02-17 18:10:00,
2013-02-17 13:15:00,35.2,4.6,30.02,NW,326,11.0,25.0,27,0.00,,,0.01,752.00,VWS V14.01,2013-02-17 18:15:00,
2013-02-17 13:20:00,35.3,6.2,30.02,North,10,15.0,17.0,29,0.00,,,0.01,729.00,VWS V14.01,2013-02-17 18:20:00,
2013-02-17 13:25:00,35.9,6.0,30.02,West,261,6.0,20.0,28,0.00,,,0.01,728.00,VWS V14.01,2013-02-17 18:25:00,
2013-02-17 13:30:00,35.9,6.0,30.01,WSW,250,6.0,13.0,28,0.00,,,0.01,722.00,VWS V14.01,2013-02-17 18:30:00,
2013-02-17 13:35:00,36.0,6.8,30.01,NW,305,6.0,11.0,29,0.00,,,0.01,721.00,VWS V14.01,2013-02-17 18:35:00,
2013-02-17 13:40:00,36.2,7.0,30.01,West,279,6.0,22.0,29,0.00,,,0.01,712.00,VWS V14.01,2013-02-17 18:40:00,
2013-02-17 13:45:00,36.2,7.0,30.01,WSW,252,11.0,11.0,29,0.00,,,0.01,703.00,VWS V14.01,2013-02-17 18:45:00,
2013-02-17 13:50:00,36.5,6.5,30.01,NNW,341,12.0,15.0,28,0.00,,,0.01,696.00,VWS V14.01,2013-02-17 18:50:00,
2013-02-17 13:55:00,36.6,7.4,30.01,West,280,15.0,15.0,29,0.00,,,0.01,689.00,VWS V14.01,2013-02-17 18:55:00,
2013-02-17 14:00:00,36.8,6.8,30.01,NW,306,13.0,16.0,28,0.00,,,0.01,686.00,VWS V14.01,2013-02-17 19:00:00,
2013-02-17 14:05:00,36.8,6.8,30.01,SW,220,6.0,7.0,28,0.00,,,0.01,689.00,VWS V14.01,2013-02-17 19:05:00,
2013-02-17 14:10:00,37.5,8.9,30.01,WNW,287,12.0,12.0,30,0.00,,,0.01,684.00,VWS V14.01,2013-02-17 19:10:00,
2013-02-17 14:15:00,37.3,6.4,30.01,West,273,15.0,18.0,27,0.00,,,0.01,677.00,VWS V14.01,2013-02-17 19:15:00,
2013-02-17 14:20:00,37.0,6.1,30.01,West,279,13.0,18.0,27,0.00,,,0.01,649.00,VWS V14.01,2013-02-17 19:20:00,
2013-02-17 14:25:00,37.0,6.1,30.01,West,259,7.0,9.0,27,0.00,,,0.01,647.00,VWS V14.01,2013-02-17 19:25:00,
2013-02-17 14:30:00,37.2,5.5,30.01,NNE,27,11.0,21.0,26,0.00,,,0.01,656.00,VWS V14.01,2013-02-17 19:30:00,
2013-02-17 14:35:00,37.2,7.1,30.01,NW,304,21.0,21.0,28,0.00,,,0.01,649.00,VWS V14.01,2013-02-17 19:35:00,
2013-02-17 14:40:00,37.0,6.1,30.01,WNW,282,10.0,17.0,27,0.00,,,0.01,629.00,VWS V14.01,2013-02-17 19:40:00,
2013-02-17 14:45:00,37.3,7.2,30.01,WNW,294,10.0,13.0,28,0.00,,,0.01,599.00,VWS V14.01,2013-02-17 19:45:00,
2013-02-17 14:50:00,37.6,6.7,30.01,West,270,6.0,13.0,27,0.00,,,0.01,585.00,VWS V14.01,2013-02-17 19:50:00,
2013-02-17 14:55:00,38.2,7.2,30.01,WNW,287,14.0,17.0,27,0.00,,,0.01,573.00,VWS V14.01,2013-02-17 19:55:00,
2013-02-17 15:00:00,38.2,7.2,30.01,West,267,6.0,15.0,27,0.00,,,0.01,559.00,VWS V14.01,2013-02-17 20:00:00,
2013-02-17 15:05:00,38.0,6.2,30.01,West,270,13.0,13.0,26,0.01,,,0.02,550.00,VWS V14.01,2013-02-17 20:05:00,
2013-02-17 15:10:00,38.0,7.0,30.01,WNW,288,15.0,17.0,27,0.01,,,0.02,545.00,VWS V14.01,2013-02-17 20:10:00,
2013-02-17 15:15:00,37.8,6.8,30.01,NNW,330,10.0,11.0,27,0.01,,,0.02,527.00,VWS V14.01,2013-02-17 20:15:00,
2013-02-17 15:20:00,38.0,6.2,30.01,North,358,4.0,5.0,26,0.01,,,0.02,515.00,VWS V14.01,2013-02-17 20:20:00,
2013-02-17 15:25:00,38.2,7.2,30.01,WNW,297,7.0,12.0,27,0.01,,,0.02,499.00,VWS V14.01,2013-02-17 20:25:00,
2013-02-17 15:30:00,38.3,8.1,30.01,West,278,6.0,12.0,28,0.01,,,0.02,487.00,VWS V14.01,2013-02-17 20:30:00,
2013-02-17 15:35:00,38.6,7.5,30.01,NNW,340,12.0,20.0,27,0.01,,,0.02,473.00,VWS V14.01,2013-02-17 20:35:00,
2013-02-17 15:40:00,38.5,6.6,30.01,WNW,297,3.0,10.0,26,0.01,,,0.02,459.00,VWS V14.01,2013-02-17 20:40:00,
2013-02-17 15:45:00,38.5,6.6,30.02,North,352,3.0,3.0,26,0.01,,,0.02,434.00,VWS V14.01,2013-02-17 20:45:00,
2013-02-17 15:50:00,38.5,6.6,30.02,WNW,290,3.0,11.0,26,0.01,,,0.02,422.00,VWS V14.01,2013-02-17 20:50:00,
2013-02-17 15:54:00,38.5,6.6,30.02,North,9,13.0,16.0,26,0.01,,,0.02,404.00,VWS V14.01,2013-02-17 20:54:00,
2013-02-17 15:59:00,37.9,6.9,30.02,NW,315,7.0,9.0,27,0.01,,,0.02,392.00,VWS V14.01,2013-02-17 20:59:00,
2013-02-17 16:05:00,37.8,6.0,30.02,NW,316,3.0,5.0,26,0.00,,,0.02,374.00,VWS V14.01,2013-02-17 21:05:00,
2013-02-17 16:10:00,37.5,5.8,30.02,NNW,344,6.0,7.0,26,0.00,,,0.02,74.00,VWS V14.01,2013-02-17 21:10:00,
2013-02-17 16:15:00,37.5,6.6,30.02,West,266,2.0,6.0,27,0.00,,,0.02,56.00,VWS V14.01,2013-02-17 21:15:00,
2013-02-17 16:20:00,37.6,6.7,30.02,WNW,285,3.0,5.0,27,0.00,,,0.02,54.00,VWS V14.01,2013-02-17 21:20:00,
2013-02-17 16:25:00,37.6,6.7,30.02,WNW,288,14.0,14.0,27,0.00,,,0.02,54.00,VWS V14.01,2013-02-17 21:25:00,
2013-02-17 16:30:00,37.5,4.9,30.02,North,350,2.0,7.0,25,0.00,,,0.02,53.00,VWS V14.01,2013-02-17 21:30:00,
2013-02-17 16:35:00,37.3,4.7,30.02,NW,311,16.0,16.0,25,0.00,,,0.02,51.00,VWS V14.01,2013-02-17 21:35:00,
2013-02-17 16:40:00,37.2,5.5,30.02,WNW,294,6.0,6.0,26,0.00,,,0.02,51.00,VWS V14.01,2013-02-17 21:40:00,
2013-02-17 16:45:00,37.0,4.5,30.03,NNW,330,11.0,11.0,25,0.00,,,0.02,49.00,VWS V14.01,2013-02-17 21:45:00,
2013-02-17 16:50:00,36.9,5.2,30.03,NNW,346,5.0,9.0,26,0.00,,,0.02,46.00,VWS V14.01,2013-02-17 21:50:00,
2013-02-17 16:55:00,36.8,5.1,30.03,WNW,302,3.0,10.0,26,0.00,,,0.02,37.00,VWS V14.01,2013-02-17 21:55:00,
2013-02-17 17:00:00,36.8,6.0,30.03,West,276,2.0,4.0,27,0.00,,,0.02,33.00,VWS V14.01,2013-02-17 22:00:00,
2013-02-17 17:05:00,36.6,5.0,30.03,WSW,255,13.0,17.0,26,0.00,,,0.02,32.00,VWS V14.01,2013-02-17 22:05:00,
2013-02-17 17:10:00,36.6,5.0,30.03,WSW,246,10.0,10.0,26,0.00,,,0.02,30.00,VWS V14.01,2013-02-17 22:10:00,
2013-02-17 17:15:00,36.5,4.9,30.04,NNW,346,9.0,13.0,26,0.00,,,0.02,30.00,VWS V14.01,2013-02-17 22:15:00,
2013-02-17 17:20:00,36.3,4.7,30.04,NNW,331,7.0,9.0,26,0.00,,,0.02,25.00,VWS V14.01,2013-02-17 22:20:00,
2013-02-17 17:25:00,36.3,4.7,30.04,West,266,10.0,20.0,26,0.00,,,0.02,21.00,VWS V14.01,2013-02-17 22:25:00,
2013-02-17 17:30:00,36.2,5.4,30.05,West,276,1.0,9.0,27,0.00,,,0.02,18.00,VWS V14.01,2013-02-17 22:30:00,
2013-02-17 17:35:00,36.0,5.3,30.05,NW,316,3.0,6.0,27,0.00,,,0.02,14.00,VWS V14.01,2013-02-17 22:35:00,
2013-02-17 17:40:00,35.9,5.2,30.05,NNW,336,7.0,7.0,27,0.00,,,0.02,12.00,VWS V14.01,2013-02-17 22:40:00,
2013-02-17 17:45:00,35.6,5.7,30.05,WNW,285,13.0,13.0,28,0.00,,,0.02,11.00,VWS V14.01,2013-02-17 22:45:00,
2013-02-17 17:49:00,35.5,4.8,30.05,WNW,300,12.0,15.0,27,0.00,,,0.02,9.00,VWS V14.01,2013-02-17 22:49:00,
2013-02-17 17:54:00,35.5,4.8,30.05,NW,319,0.0,8.0,27,0.00,,,0.02,7.00,VWS V14.01,2013-02-17 22:54:00,
2013-02-17 17:59:00,35.3,5.5,30.06,WNW,299,13.0,13.0,28,0.00,,,0.02,5.00,VWS V14.01,2013-02-17 22:59:00,
2013-02-17 18:04:00,35.2,4.6,30.06,North,358,5.0,10.0,27,0.00,,,0.02,0.00,VWS V14.01,2013-02-17 23:04:00,
2013-02-17 18:09:00,35.0,5.2,30.06,NNW,345,1.0,3.0,28,0.00,,,0.02,0.00,VWS V14.01,2013-02-17 23:09:00,
2013-02-17 18:14:00,34.9,5.1,30.07,WNW,283,0.0,0.0,28,0.00,,,0.02,0.00,VWS V14.01,2013-02-17 23:14:00,
2013-02-17 18:19:00,34.6,4.9,30.07,NW,306,0.0,3.0,28,0.00,,,0.02,0.00,VWS V14.01,2013-02-17 23:19:00,
2013-02-17 18:24:00,34.3,4.6,30.07,NW,308,2.0,2.0,28,0.00,,,0.02,0.00,VWS V14.01,2013-02-17 23:24:00,
2013-02-17 18:29:00,34.1,5.2,30.07,WNW,297,4.0,4.0,29,0.00,,,0.02,0.00,VWS V14.01,2013-02-17 23:29:00,
2013-02-17 18:34:00,33.8,4.9,30.07,WNW,295,0.0,3.0,29,0.00,,,0.02,0.00,VWS V14.01,2013-02-17 23:34:00,
2013-02-17 18:39:00,33.7,4.8,30.07,WNW,302,6.0,6.0,29,0.00,,,0.02,0.00,VWS V14.01,2013-02-17 23:39:00,
2013-02-17 18:44:00,33.5,5.4,30.08,WNW,297,2.0,4.0,30,0.00,,,0.02,0.00,VWS V14.01,2013-02-17 23:44:00,
2013-02-17 18:49:00,33.2,5.8,30.08,WNW,296,1.0,1.0,31,0.00,,,0.02,0.00,VWS V14.01,2013-02-17 23:49:00,
2013-02-17 18:54:00,33.1,5.8,30.08,WNW,296,0.0,1.0,31,0.00,,,0.02,0.00,VWS V14.01,2013-02-17 23:54:00,
2013-02-17 18:59:00,32.8,5.5,30.08,WNW,298,3.0,4.0,31,0.00,,,0.02,0.00,VWS V14.01,2013-02-17 23:59:00,
2013-02-17 19:04:00,32.5,5.2,30.08,WNW,286,0.0,0.0,31,0.00,,,0.02,0.00,VWS V14.01,2013-02-18 00:04:00,
2013-02-17 19:09:00,32.4,5.8,30.08,WNW,286,0.0,0.0,32,0.00,,,0.02,0.00,VWS V14.01,2013-02-18 00:09:00,
2013-02-17 19:14:00,31.9,6.1,30.09,NNW,332,0.0,0.0,33,0.00,,,0.02,0.00,VWS V14.01,2013-02-18 00:14:00,
2013-02-17 19:19:00,31.6,6.5,30.09,WNW,298,0.0,0.0,34,0.00,,,0.02,0.00,VWS V14.01,2013-02-18 00:19:00,
2013-02-17 19:24:00,31.3,6.8,30.09,NW,323,0.0,1.0,35,0.00,,,0.02,0.00,VWS V14.01,2013-02-18 00:24:00,
2013-02-17 19:29:00,30.9,8.3,30.10,NW,323,0.0,0.0,38,0.00,,,0.02,0.00,VWS V14.01,2013-02-18 00:29:00,
2013-02-17 19:34:00,30.4,8.4,30.10,NW,323,0.0,0.0,39,0.00,,,0.02,0.00,VWS V14.01,2013-02-18 00:34:00,
2013-02-17 19:39:00,30.1,8.1,30.10,NW,323,0.0,0.0,39,0.00,,,0.02,0.00,VWS V14.01,2013-02-18 00:39:00,
2013-02-17 19:44:00,29.8,7.9,30.10,NW,323,0.0,0.0,39,0.00,,,0.02,0.00,VWS V14.01,2013-02-18 00:44:00,
2013-02-17 19:49:00,29.5,8.7,30.10,NW,323,0.0,0.0,41,0.00,,,0.02,0.00,VWS V14.01,2013-02-18 00:49:00,
2013-02-17 19:54:00,29.4,9.2,30.10,NW,323,0.0,0.0,42,0.00,,,0.02,0.00,VWS V14.01,2013-02-18 00:54:00,
2013-02-17 19:59:00,29.3,9.6,30.11,NW,323,0.0,0.0,43,0.00,,,0.02,0.00,VWS V14.01,2013-02-18 00:59:00,
2013-02-17 20:04:00,29.0,9.3,30.11,NW,323,0.0,0.0,43,0.00,,,0.02,0.00,VWS V14.01,2013-02-18 01:04:00,
2013-02-17 20:09:00,28.7,10.6,30.11,NW,323,0.0,0.0,46,0.00,,,0.02,0.00,VWS V14.01,2013-02-18 01:09:00,
2013-02-17 20:14:00,28.4,10.3,30.12,NW,323,0.0,0.0,46,0.00,,,0.02,0.00,VWS V14.01,2013-02-18 01:14:00,
2013-02-17 20:19:00,27.9,10.3,30.12,NW,323,0.0,0.0,47,0.00,,,0.02,0.00,VWS V14.01,2013-02-18 01:19:00,
2013-02-17 20:24:00,27.6,10.9,30.12,NW,323,0.0,0.0,49,0.00,,,0.02,0.00,VWS V14.01,2013-02-18 01:24:00,
2013-02-17 20:29:00,27.2,11.0,30.13,NW,323,0.0,0.0,50,0.00,,,0.02,0.00,VWS V14.01,2013-02-18 01:29:00,
2013-02-17 20:34:00,26.9,12.1,30.13,NW,323,0.0,0.0,53,0.00,,,0.02,0.00,VWS V14.01,2013-02-18 01:34:00,
2013-02-17 20:39:00,26.6,12.6,30.13,NW,323,0.0,0.0,55,0.00,,,0.02,0.00,VWS V14.01,2013-02-18 01:39:00,
2013-02-17 20:44:00,26.4,13.2,30.13,NW,323,0.0,0.0,57,0.00,,,0.02,0.00,VWS V14.01,2013-02-18 01:44:00,
2013-02-17 20:49:00,26.1,13.4,30.13,NW,323,0.0,0.0,58,0.00,,,0.02,0.00,VWS V14.01,2013-02-18 01:49:00,
2013-02-17 20:54:00,25.8,13.5,30.13,NW,323,0.0,0.0,59,0.00,,,0.02,0.00,VWS V14.01,2013-02-18 01:54:00,
2013-02-17 20:59:00,25.7,14.1,30.14,NW,323,0.0,0.0,61,0.00,,,0.02,0.00,VWS V14.01,2013-02-18 01:59:00,
2013-02-17 21:04:00,25.4,13.8,30.14,NW,323,0.0,0.0,61,0.00,,,0.02,0.00,VWS V14.01,2013-02-18 02:04:00,
2013-02-17 21:09:00,25.3,14.5,30.14,NW,323,0.0,0.0,63,0.00,,,0.02,0.00,VWS V14.01,2013-02-18 02:09:00,
2013-02-17 21:14:00,25.1,14.6,30.15,NW,323,0.0,0.0,64,0.00,,,0.02,0.00,VWS V14.01,2013-02-18 02:14:00,
2013-02-17 21:19:00,24.8,14.4,30.15,NW,323,0.0,0.0,64,0.00,,,0.02,0.00,VWS V14.01,2013-02-18 02:19:00,
2013-02-17 21:24:00,24.7,14.3,30.15,NW,323,0.0,0.0,64,0.00,,,0.02,0.00,VWS V14.01,2013-02-18 02:24:00,
2013-02-17 21:29:00,24.7,14.3,30.15,NW,323,0.0,0.0,64,0.00,,,0.02,0.00,VWS V14.01,2013-02-18 02:29:00,
2013-02-17 21:34:00,24.5,13.7,30.15,NW,323,0.0,0.0,63,0.00,,,0.02,0.00,VWS V14.01,2013-02-18 02:34:00,
2013-02-17 21:39:00,24.4,13.3,30.15,NW,323,0.0,0.0,62,0.00,,,0.02,0.00,VWS V14.01,2013-02-18 02:39:00,
2013-02-17 21:44:00,24.4,14.0,30.16,NW,323,0.0,0.0,64,0.00,,,0.02,0.00,VWS V14.01,2013-02-18 02:44:00,
2013-02-17 21:49:00,24.5,15.1,30.16,NW,323,0.0,0.0,67,0.00,,,0.02,0.00,VWS V14.01,2013-02-18 02:49:00,
2013-02-17 21:54:00,24.5,15.5,30.16,NW,323,0.0,0.0,68,0.00,,,0.02,0.00,VWS V14.01,2013-02-18 02:54:00,
2013-02-17 21:59:00,24.2,15.2,30.16,NW,323,0.0,0.0,68,0.00,,,0.02,0.00,VWS V14.01,2013-02-18 02:59:00,
2013-02-17 22:04:00,24.2,15.8,30.16,NW,323,0.0,0.0,70,0.00,,,0.02,0.00,VWS V14.01,2013-02-18 03:04:00,
2013-02-17 22:09:00,24.1,16.1,30.16,NW,323,0.0,0.0,71,0.00,,,0.02,0.00,VWS V14.01,2013-02-18 03:09:00,
2013-02-17 22:14:00,24.1,16.1,30.16,NW,323,0.0,0.0,71,0.00,,,0.02,0.00,VWS V14.01,2013-02-18 03:14:00,
2013-02-17 22:19:00,23.9,15.9,30.16,NW,323,0.0,0.0,71,0.00,,,0.02,0.00,VWS V14.01,2013-02-18 03:19:00,
2013-02-17 22:24:00,23.8,15.8,30.16,NW,323,0.0,0.0,71,0.00,,,0.02,0.00,VWS V14.01,2013-02-18 03:24:00,
2013-02-17 22:29:00,23.9,15.9,30.16,NW,323,0.0,0.0,71,0.00,,,0.02,0.00,VWS V14.01,2013-02-18 03:29:00,
2013-02-17 22:34:00,23.8,15.8,30.16,NW,323,0.0,0.0,71,0.00,,,0.02,0.00,VWS V14.01,2013-02-18 03:34:00,
2013-02-17 22:39:00,23.6,15.6,30.16,NW,323,0.0,0.0,71,0.00,,,0.02,0.00,VWS V14.01,2013-02-18 03:39:00,
2013-02-17 22:44:00,23.5,15.8,30.17,NW,323,0.0,0.0,72,0.00,,,0.02,0.00,VWS V14.01,2013-02-18 03:44:00,
2013-02-17 22:49:00,23.3,15.6,30.17,NW,323,0.0,0.0,72,0.00,,,0.02,0.00,VWS V14.01,2013-02-18 03:49:00,
2013-02-17 22:54:00,23.2,15.5,30.17,NW,323,0.0,0.0,72,0.00,,,0.02,0.00,VWS V14.01,2013-02-18 03:54:00,
2013-02-17 22:59:00,23.0,15.3,30.17,NW,323,0.0,0.0,72,0.00,,,0.02,0.00,VWS V14.01,2013-02-18 03:59:00,
2013-02-17 23:04:00,23.0,15.3,30.17,NW,323,0.0,0.0,72,0.00,,,0.02,0.00,VWS V14.01,2013-02-18 04:04:00,
2013-02-17 23:09:00,22.9,15.6,30.17,NW,323,0.0,0.0,73,0.00,,,0.02,0.00,VWS V14.01,2013-02-18 04:09:00,
2013-02-17 23:14:00,22.9,15.6,30.18,NW,323,0.0,0.0,73,0.00,,,0.02,0.00,VWS V14.01,2013-02-18 04:14:00,
2013-02-17 23:19:00,22.9,15.6,30.18,NW,323,0.0,0.0,73,0.00,,,0.02,0.00,VWS V14.01,2013-02-18 04:19:00,
2013-02-17 23:24:00,22.7,15.4,30.18,NW,323,0.0,0.0,73,0.00,,,0.02,0.00,VWS V14.01,2013-02-18 04:24:00,
2013-02-17 23:29:00,22.7,15.4,30.19,NW,323,0.0,0.0,73,0.00,,,0.02,0.00,VWS V14.01,2013-02-18 04:29:00,
2013-02-17 23:34:00,22.5,15.2,30.19,NW,323,0.0,0.0,73,0.00,,,0.02,0.00,VWS V14.01,2013-02-18 04:34:00,
2013-02-17 23:39:00,22.4,15.1,30.19,NW,323,0.0,0.0,73,0.00,,,0.02,0.00,VWS V14.01,2013-02-18 04:39:00,
2013-02-17 23:44:00,22.2,14.9,30.19,NW,323,0.0,0.0,73,0.00,,,0.02,0.00,VWS V14.01,2013-02-18 04:44:00,
2013-02-17 23:49:00,22.2,14.9,30.19,NW,323,0.0,0.0,73,0.00,,,0.02,0.00,VWS V14.01,2013-02-18 04:49:00,
2013-02-17 23:54:00,22.2,15.5,30.19,NW,323,0.0,0.0,75,0.00,,,0.02,0.00,VWS V14.01,2013-02-18 04:54:00,
2013-02-17 23:59:00,22.1,15.4,30.19,NW,323,0.0,0.0,75,0.00,,,0.02,0.00,VWS V14.01,2013-02-18 04:59:00,